sensor_id;sensor_type;location;lat;lon;timestamp;temperature;humidity
10417;DHT22;62605;49.432;8.680;2022-12-31T00:02:15;13.30;99.90
10417;DHT22;62605;49.432;8.680;2022-12-31T00:04:42;13.30;99.90
10417;DHT22;62605;49.432;8.680;2022-12-31T00:07:09;13.30;99.90
10417;DHT22;62605;49.432;8.680;2022-12-31T00:09:36;13.30;99.90
10417;DHT22;62605;49.432;8.680;2022-12-31T00:12:04;13.30;99.90
10417;DHT22;62605;49.432;8.680;2022-12-31T00:14:31;13.20;99.90
10417;DHT22;62605;49.432;8.680;2022-12-31T00:16:58;13.10;99.90
10417;DHT22;62605;49.432;8.680;2022-12-31T00:19:26;13.00;99.90
10417;DHT22;62605;49.432;8.680;2022-12-31T00:21:53;12.90;99.90
10417;DHT22;62605;49.432;8.680;2022-12-31T00:24:21;12.80;99.90
10417;DHT22;62605;49.432;8.680;2022-12-31T00:26:48;12.70;99.90
10417;DHT22;62605;49.432;8.680;2022-12-31T00:29:15;12.60;99.90
10417;DHT22;62605;49.432;8.680;2022-12-31T00:31:42;12.60;99.90
10417;DHT22;62605;49.432;8.680;2022-12-31T00:34:09;12.60;99.90
10417;DHT22;62605;49.432;8.680;2022-12-31T00:36:38;12.60;99.90
10417;DHT22;62605;49.432;8.680;2022-12-31T00:39:08;12.60;99.90
10417;DHT22;62605;49.432;8.680;2022-12-31T00:41:36;12.50;99.90
10417;DHT22;62605;49.432;8.680;2022-12-31T00:44:03;12.50;99.90
10417;DHT22;62605;49.432;8.680;2022-12-31T00:46:30;12.50;99.90
10417;DHT22;62605;49.432;8.680;2022-12-31T00:48:58;12.40;99.90
10417;DHT22;62605;49.432;8.680;2022-12-31T00:51:26;12.50;99.90
10417;DHT22;62605;49.432;8.680;2022-12-31T00:53:54;12.50;99.90
10417;DHT22;62605;49.432;8.680;2022-12-31T00:56:23;12.60;99.90
10417;DHT22;62605;49.432;8.680;2022-12-31T00:58:51;12.60;99.90
10417;DHT22;62605;49.432;8.680;2022-12-31T01:01:19;12.60;99.90
10417;DHT22;62605;49.432;8.680;2022-12-31T01:03:47;12.50;99.90
10417;DHT22;62605;49.432;8.680;2022-12-31T01:06:15;12.60;99.90
10417;DHT22;62605;49.432;8.680;2022-12-31T01:08:43;12.60;99.90
10417;DHT22;62605;49.432;8.680;2022-12-31T01:11:12;12.60;99.90
10417;DHT22;62605;49.432;8.680;2022-12-31T01:13:47;12.60;99.90
10417;DHT22;62605;49.432;8.680;2022-12-31T01:16:17;12.70;99.90
10417;DHT22;62605;49.432;8.680;2022-12-31T01:18:45;12.80;99.90
10417;DHT22;62605;49.432;8.680;2022-12-31T01:21:13;12.80;99.90
10417;DHT22;62605;49.432;8.680;2022-12-31T01:23:40;12.70;99.90
10417;DHT22;62605;49.432;8.680;2022-12-31T01:26:09;12.80;99.90
10417;DHT22;62605;49.432;8.680;2022-12-31T01:28:39;12.90;99.90
10417;DHT22;62605;49.432;8.680;2022-12-31T01:31:09;12.90;99.90
10417;DHT22;62605;49.432;8.680;2022-12-31T01:33:37;13.00;99.90
10417;DHT22;62605;49.432;8.680;2022-12-31T01:36:06;12.90;99.90
10417;DHT22;62605;49.432;8.680;2022-12-31T01:38:34;13.00;99.90
10417;DHT22;62605;49.432;8.680;2022-12-31T01:41:02;13.00;99.90
10417;DHT22;62605;49.432;8.680;2022-12-31T01:43:46;13.00;99.90
10417;DHT22;62605;49.432;8.680;2022-12-31T01:46:20;13.10;99.90
10417;DHT22;62605;49.432;8.680;2022-12-31T01:48:50;13.10;99.90
10417;DHT22;62605;49.432;8.680;2022-12-31T01:51:19;13.00;99.90
10417;DHT22;62605;49.432;8.680;2022-12-31T01:53:47;13.00;99.90
10417;DHT22;62605;49.432;8.680;2022-12-31T01:56:15;13.10;99.90
10417;DHT22;62605;49.432;8.680;2022-12-31T01:58:46;13.20;99.90
10417;DHT22;62605;49.432;8.680;2022-12-31T02:01:20;13.30;99.90
10417;DHT22;62605;49.432;8.680;2022-12-31T02:03:48;13.30;99.90
10417;DHT22;62605;49.432;8.680;2022-12-31T02:06:19;13.40;99.90
10417;DHT22;62605;49.432;8.680;2022-12-31T02:08:47;13.30;99.90
10417;DHT22;62605;49.432;8.680;2022-12-31T02:11:27;13.30;99.90
10417;DHT22;62605;49.432;8.680;2022-12-31T02:13:59;13.30;99.90
10417;DHT22;62605;49.432;8.680;2022-12-31T02:16:32;13.30;99.90
10417;DHT22;62605;49.432;8.680;2022-12-31T02:19:06;13.30;99.90
10417;DHT22;62605;49.432;8.680;2022-12-31T02:21:50;13.20;99.90
10417;DHT22;62605;49.432;8.680;2022-12-31T02:24:35;13.30;99.90
10417;DHT22;62605;49.432;8.680;2022-12-31T02:27:09;13.40;99.90
10417;DHT22;62605;49.432;8.680;2022-12-31T02:30:00;13.30;99.90
10417;DHT22;62605;49.432;8.680;2022-12-31T02:32:46;13.40;99.90
10417;DHT22;62605;49.432;8.680;2022-12-31T02:35:19;13.30;99.90
10417;DHT22;62605;49.432;8.680;2022-12-31T02:37:49;13.50;99.90
10417;DHT22;62605;49.432;8.680;2022-12-31T02:40:21;13.40;99.90
10417;DHT22;62605;49.432;8.680;2022-12-31T02:42:48;13.50;99.90
10417;DHT22;62605;49.432;8.680;2022-12-31T02:45:21;13.40;99.90
10417;DHT22;62605;49.432;8.680;2022-12-31T02:47:57;13.30;99.90
10417;DHT22;62605;49.432;8.680;2022-12-31T02:50:34;13.30;99.90
10417;DHT22;62605;49.432;8.680;2022-12-31T02:53:17;13.40;99.90
10417;DHT22;62605;49.432;8.680;2022-12-31T02:55:51;13.40;99.90
10417;DHT22;62605;49.432;8.680;2022-12-31T02:58:25;13.80;99.90
10417;DHT22;62605;49.432;8.680;2022-12-31T03:01:18;13.90;99.90
10417;DHT22;62605;49.432;8.680;2022-12-31T03:04:12;14.00;99.90
10417;DHT22;62605;49.432;8.680;2022-12-31T03:06:59;13.90;99.90
10417;DHT22;62605;49.432;8.680;2022-12-31T03:09:27;14.10;99.90
10417;DHT22;62605;49.432;8.680;2022-12-31T03:11:55;14.20;99.90
10417;DHT22;62605;49.432;8.680;2022-12-31T03:14:39;14.30;99.90
10417;DHT22;62605;49.432;8.680;2022-12-31T03:17:08;14.20;99.90
10417;DHT22;62605;49.432;8.680;2022-12-31T03:19:35;14.10;99.90
10417;DHT22;62605;49.432;8.680;2022-12-31T03:22:20;14.10;99.90
10417;DHT22;62605;49.432;8.680;2022-12-31T03:24:57;14.10;99.90
10417;DHT22;62605;49.432;8.680;2022-12-31T03:27:42;14.10;99.90
10417;DHT22;62605;49.432;8.680;2022-12-31T03:30:11;14.10;99.90
10417;DHT22;62605;49.432;8.680;2022-12-31T03:32:40;14.00;99.90
10417;DHT22;62605;49.432;8.680;2022-12-31T03:35:08;14.00;99.90
10417;DHT22;62605;49.432;8.680;2022-12-31T03:37:36;14.00;99.90
10417;DHT22;62605;49.432;8.680;2022-12-31T03:40:05;13.90;99.90
10417;DHT22;62605;49.432;8.680;2022-12-31T03:42:33;13.80;99.90
10417;DHT22;62605;49.432;8.680;2022-12-31T03:45:02;13.90;99.90
10417;DHT22;62605;49.432;8.680;2022-12-31T03:47:29;13.90;99.90
10417;DHT22;62605;49.432;8.680;2022-12-31T03:49:57;13.80;99.90
10417;DHT22;62605;49.432;8.680;2022-12-31T03:52:24;13.80;99.90
10417;DHT22;62605;49.432;8.680;2022-12-31T03:54:51;13.90;99.90
10417;DHT22;62605;49.432;8.680;2022-12-31T03:57:18;13.90;99.90
10417;DHT22;62605;49.432;8.680;2022-12-31T03:59:45;13.90;99.90
10417;DHT22;62605;49.432;8.680;2022-12-31T04:02:12;13.90;99.90
10417;DHT22;62605;49.432;8.680;2022-12-31T04:04:39;13.80;99.90
10417;DHT22;62605;49.432;8.680;2022-12-31T04:07:07;14.00;99.90
10417;DHT22;62605;49.432;8.680;2022-12-31T04:09:34;14.10;99.90
10417;DHT22;62605;49.432;8.680;2022-12-31T04:12:01;14.00;99.90
10417;DHT22;62605;49.432;8.680;2022-12-31T04:14:28;14.00;99.90
10417;DHT22;62605;49.432;8.680;2022-12-31T04:16:55;13.90;99.90
10417;DHT22;62605;49.432;8.680;2022-12-31T04:19:23;13.80;99.90
10417;DHT22;62605;49.432;8.680;2022-12-31T04:21:50;13.80;99.90
10417;DHT22;62605;49.432;8.680;2022-12-31T04:24:18;13.90;99.90
10417;DHT22;62605;49.432;8.680;2022-12-31T04:26:46;14.10;99.90
10417;DHT22;62605;49.432;8.680;2022-12-31T04:29:13;14.10;99.90
10417;DHT22;62605;49.432;8.680;2022-12-31T04:31:40;14.10;99.90
10417;DHT22;62605;49.432;8.680;2022-12-31T04:34:06;14.10;99.90
10417;DHT22;62605;49.432;8.680;2022-12-31T04:36:34;14.10;99.90
10417;DHT22;62605;49.432;8.680;2022-12-31T04:39:01;14.30;99.90
10417;DHT22;62605;49.432;8.680;2022-12-31T04:41:29;14.20;99.90
10417;DHT22;62605;49.432;8.680;2022-12-31T04:43:58;14.30;99.90
10417;DHT22;62605;49.432;8.680;2022-12-31T04:46:28;14.40;99.90
10417;DHT22;62605;49.432;8.680;2022-12-31T04:48:57;14.40;99.90
10417;DHT22;62605;49.432;8.680;2022-12-31T04:51:26;14.30;99.90
10417;DHT22;62605;49.432;8.680;2022-12-31T04:53:54;14.20;99.90
10417;DHT22;62605;49.432;8.680;2022-12-31T04:56:22;14.30;99.90
10417;DHT22;62605;49.432;8.680;2022-12-31T04:58:52;14.40;99.90
10417;DHT22;62605;49.432;8.680;2022-12-31T05:01:19;14.40;99.90
10417;DHT22;62605;49.432;8.680;2022-12-31T05:03:47;14.40;99.90
10417;DHT22;62605;49.432;8.680;2022-12-31T05:06:16;14.30;99.90
10417;DHT22;62605;49.432;8.680;2022-12-31T05:08:43;14.40;99.90
10417;DHT22;62605;49.432;8.680;2022-12-31T05:11:11;14.50;99.90
10417;DHT22;62605;49.432;8.680;2022-12-31T05:13:38;14.50;99.90
10417;DHT22;62605;49.432;8.680;2022-12-31T05:16:08;14.50;99.90
10417;DHT22;62605;49.432;8.680;2022-12-31T05:18:36;14.50;99.90
10417;DHT22;62605;49.432;8.680;2022-12-31T05:21:03;14.40;99.90
10417;DHT22;62605;49.432;8.680;2022-12-31T05:23:30;14.50;99.90
10417;DHT22;62605;49.432;8.680;2022-12-31T05:25:57;14.70;99.90
10417;DHT22;62605;49.432;8.680;2022-12-31T05:28:26;14.90;99.90
10417;DHT22;62605;49.432;8.680;2022-12-31T05:30:53;14.90;99.90
10417;DHT22;62605;49.432;8.680;2022-12-31T05:33:22;14.70;99.90
10417;DHT22;62605;49.432;8.680;2022-12-31T05:35:49;14.80;99.90
10417;DHT22;62605;49.432;8.680;2022-12-31T05:38:16;14.90;99.90
10417;DHT22;62605;49.432;8.680;2022-12-31T05:40:43;14.90;99.90
10417;DHT22;62605;49.432;8.680;2022-12-31T05:43:10;14.90;99.90
10417;DHT22;62605;49.432;8.680;2022-12-31T05:45:37;14.90;99.90
10417;DHT22;62605;49.432;8.680;2022-12-31T05:48:05;14.90;99.90
10417;DHT22;62605;49.432;8.680;2022-12-31T05:50:34;15.00;99.90
10417;DHT22;62605;49.432;8.680;2022-12-31T05:53:01;14.90;99.90
10417;DHT22;62605;49.432;8.680;2022-12-31T05:55:29;14.80;99.90
10417;DHT22;62605;49.432;8.680;2022-12-31T05:57:56;14.80;99.90
10417;DHT22;62605;49.432;8.680;2022-12-31T06:00:23;14.90;99.90
10417;DHT22;62605;49.432;8.680;2022-12-31T06:02:51;14.80;99.90
10417;DHT22;62605;49.432;8.680;2022-12-31T06:05:18;15.00;99.90
10417;DHT22;62605;49.432;8.680;2022-12-31T06:07:47;15.00;99.90
10417;DHT22;62605;49.432;8.680;2022-12-31T06:10:14;14.90;99.90
10417;DHT22;62605;49.432;8.680;2022-12-31T06:12:41;15.00;99.90
10417;DHT22;62605;49.432;8.680;2022-12-31T06:15:08;15.00;99.90
10417;DHT22;62605;49.432;8.680;2022-12-31T06:17:36;15.10;99.90
10417;DHT22;62605;49.432;8.680;2022-12-31T06:20:04;15.00;99.90
10417;DHT22;62605;49.432;8.680;2022-12-31T06:22:31;15.00;99.90
10417;DHT22;62605;49.432;8.680;2022-12-31T06:25:00;15.00;99.90
10417;DHT22;62605;49.432;8.680;2022-12-31T06:27:27;15.00;99.90
10417;DHT22;62605;49.432;8.680;2022-12-31T06:29:55;15.10;99.90
10417;DHT22;62605;49.432;8.680;2022-12-31T06:32:22;15.20;99.90
10417;DHT22;62605;49.432;8.680;2022-12-31T06:34:49;15.20;99.90
10417;DHT22;62605;49.432;8.680;2022-12-31T06:37:16;15.10;99.90
10417;DHT22;62605;49.432;8.680;2022-12-31T06:39:43;15.10;99.90
10417;DHT22;62605;49.432;8.680;2022-12-31T06:42:12;15.10;99.90
10417;DHT22;62605;49.432;8.680;2022-12-31T06:44:39;15.00;99.90
10417;DHT22;62605;49.432;8.680;2022-12-31T06:47:07;15.20;99.90
10417;DHT22;62605;49.432;8.680;2022-12-31T06:49:34;15.10;99.90
10417;DHT22;62605;49.432;8.680;2022-12-31T06:52:02;15.10;99.90
10417;DHT22;62605;49.432;8.680;2022-12-31T06:54:29;15.20;99.90
10417;DHT22;62605;49.432;8.680;2022-12-31T06:56:56;15.00;99.90
10417;DHT22;62605;49.432;8.680;2022-12-31T06:59:28;15.00;99.90
10417;DHT22;62605;49.432;8.680;2022-12-31T07:02:15;14.90;99.90
10417;DHT22;62605;49.432;8.680;2022-12-31T07:05:01;15.10;99.90
10417;DHT22;62605;49.432;8.680;2022-12-31T07:07:33;15.00;99.90
10417;DHT22;62605;49.432;8.680;2022-12-31T07:10:15;14.90;99.90
10417;DHT22;62605;49.432;8.680;2022-12-31T07:12:56;14.80;99.90
10417;DHT22;62605;49.432;8.680;2022-12-31T07:15:40;14.80;99.90
10417;DHT22;62605;49.432;8.680;2022-12-31T07:18:16;14.70;99.90
10417;DHT22;62605;49.432;8.680;2022-12-31T07:20:47;14.70;99.90
10417;DHT22;62605;49.432;8.680;2022-12-31T07:23:14;14.70;99.90
10417;DHT22;62605;49.432;8.680;2022-12-31T07:25:48;14.60;99.90
10417;DHT22;62605;49.432;8.680;2022-12-31T07:28:23;14.50;99.90
10417;DHT22;62605;49.432;8.680;2022-12-31T07:31:01;14.50;99.90
10417;DHT22;62605;49.432;8.680;2022-12-31T07:33:41;14.50;99.90
10417;DHT22;62605;49.432;8.680;2022-12-31T07:36:21;14.50;99.90
10417;DHT22;62605;49.432;8.680;2022-12-31T07:38:55;14.70;99.90
10417;DHT22;62605;49.432;8.680;2022-12-31T07:41:44;14.70;99.90
10417;DHT22;62605;49.432;8.680;2022-12-31T07:44:29;14.70;99.90
10417;DHT22;62605;49.432;8.680;2022-12-31T07:47:01;14.60;99.90
10417;DHT22;62605;49.432;8.680;2022-12-31T07:49:31;14.50;99.90
10417;DHT22;62605;49.432;8.680;2022-12-31T07:51:59;14.40;99.90
10417;DHT22;62605;49.432;8.680;2022-12-31T07:54:26;14.40;99.90
10417;DHT22;62605;49.432;8.680;2022-12-31T07:56:53;14.50;99.90
10417;DHT22;62605;49.432;8.680;2022-12-31T07:59:30;14.50;99.90
10417;DHT22;62605;49.432;8.680;2022-12-31T08:02:05;14.50;99.90
10417;DHT22;62605;49.432;8.680;2022-12-31T08:04:47;14.50;99.90
10417;DHT22;62605;49.432;8.680;2022-12-31T08:07:24;14.60;99.90
10417;DHT22;62605;49.432;8.680;2022-12-31T08:10:01;14.60;99.90
10417;DHT22;62605;49.432;8.680;2022-12-31T08:12:33;14.70;99.90
10417;DHT22;62605;49.432;8.680;2022-12-31T08:15:02;14.70;99.90
10417;DHT22;62605;49.432;8.680;2022-12-31T08:17:34;14.70;99.90
10417;DHT22;62605;49.432;8.680;2022-12-31T08:20:02;14.70;99.90
10417;DHT22;62605;49.432;8.680;2022-12-31T08:22:53;14.70;99.90
10417;DHT22;62605;49.432;8.680;2022-12-31T08:25:29;14.70;99.90
10417;DHT22;62605;49.432;8.680;2022-12-31T08:28:03;14.70;99.90
10417;DHT22;62605;49.432;8.680;2022-12-31T08:30:40;14.80;99.90
10417;DHT22;62605;49.432;8.680;2022-12-31T08:33:16;14.90;99.90
10417;DHT22;62605;49.432;8.680;2022-12-31T08:35:54;14.90;99.90
10417;DHT22;62605;49.432;8.680;2022-12-31T08:38:30;14.90;99.90
10417;DHT22;62605;49.432;8.680;2022-12-31T08:41:02;14.80;99.90
10417;DHT22;62605;49.432;8.680;2022-12-31T08:43:44;14.90;99.90
10417;DHT22;62605;49.432;8.680;2022-12-31T08:46:18;15.00;99.90
10417;DHT22;62605;49.432;8.680;2022-12-31T08:48:53;15.10;99.90
10417;DHT22;62605;49.432;8.680;2022-12-31T08:51:23;15.10;99.90
10417;DHT22;62605;49.432;8.680;2022-12-31T08:53:51;15.10;99.90
10417;DHT22;62605;49.432;8.680;2022-12-31T08:56:27;15.10;99.90
10417;DHT22;62605;49.432;8.680;2022-12-31T08:59:06;15.10;99.90
10417;DHT22;62605;49.432;8.680;2022-12-31T09:01:41;15.20;99.90
10417;DHT22;62605;49.432;8.680;2022-12-31T09:04:21;15.20;99.90
10417;DHT22;62605;49.432;8.680;2022-12-31T09:06:55;15.30;99.90
10417;DHT22;62605;49.432;8.680;2022-12-31T09:09:32;15.30;99.90
10417;DHT22;62605;49.432;8.680;2022-12-31T09:12:07;15.20;99.90
10417;DHT22;62605;49.432;8.680;2022-12-31T09:14:42;15.20;99.90
10417;DHT22;62605;49.432;8.680;2022-12-31T09:20:18;15.30;99.90
10417;DHT22;62605;49.432;8.680;2022-12-31T09:22:47;15.30;99.90
10417;DHT22;62605;49.432;8.680;2022-12-31T09:25:17;15.40;99.90
10417;DHT22;62605;49.432;8.680;2022-12-31T09:27:52;15.40;99.90
10417;DHT22;62605;49.432;8.680;2022-12-31T09:30:25;15.40;99.90
10417;DHT22;62605;49.432;8.680;2022-12-31T09:32:58;15.50;99.90
10417;DHT22;62605;49.432;8.680;2022-12-31T09:35:35;15.50;99.90
10417;DHT22;62605;49.432;8.680;2022-12-31T09:38:07;15.60;99.90
10417;DHT22;62605;49.432;8.680;2022-12-31T09:41:09;15.60;99.90
10417;DHT22;62605;49.432;8.680;2022-12-31T09:44:25;15.60;99.90
10417;DHT22;62605;49.432;8.680;2022-12-31T09:50:27;15.70;99.90
10417;DHT22;62605;49.432;8.680;2022-12-31T09:53:23;15.80;99.90
10417;DHT22;62605;49.432;8.680;2022-12-31T09:55:56;15.80;99.90
10417;DHT22;62605;49.432;8.680;2022-12-31T09:58:41;15.80;99.90
10417;DHT22;62605;49.432;8.680;2022-12-31T10:01:29;15.80;99.90
10417;DHT22;62605;49.432;8.680;2022-12-31T10:07:19;15.70;99.90
10417;DHT22;62605;49.432;8.680;2022-12-31T10:10:05;15.80;99.90
10417;DHT22;62605;49.432;8.680;2022-12-31T10:13:00;15.80;99.90
10417;DHT22;62605;49.432;8.680;2022-12-31T10:15:52;15.70;99.90
10417;DHT22;62605;49.432;8.680;2022-12-31T10:18:35;15.80;99.90
10417;DHT22;62605;49.432;8.680;2022-12-31T10:21:27;15.90;99.90
10417;DHT22;62605;49.432;8.680;2022-12-31T10:24:24;16.10;99.90
10417;DHT22;62605;49.432;8.680;2022-12-31T10:27:10;16.10;99.90
10417;DHT22;62605;49.432;8.680;2022-12-31T10:29:45;16.10;99.90
10417;DHT22;62605;49.432;8.680;2022-12-31T10:32:19;16.20;99.90
10417;DHT22;62605;49.432;8.680;2022-12-31T10:34:53;16.20;99.90
10417;DHT22;62605;49.432;8.680;2022-12-31T10:37:23;16.30;99.90
10417;DHT22;62605;49.432;8.680;2022-12-31T10:40:03;16.40;99.90
10417;DHT22;62605;49.432;8.680;2022-12-31T10:43:11;16.50;99.90
10417;DHT22;62605;49.432;8.680;2022-12-31T10:46:28;16.60;99.90
10417;DHT22;62605;49.432;8.680;2022-12-31T10:49:37;16.60;99.90
10417;DHT22;62605;49.432;8.680;2022-12-31T10:58:56;16.70;99.90
10417;DHT22;62605;49.432;8.680;2022-12-31T11:01:34;16.80;99.90
10417;DHT22;62605;49.432;8.680;2022-12-31T11:04:28;17.00;99.90
10417;DHT22;62605;49.432;8.680;2022-12-31T11:16:22;17.30;99.90
10417;DHT22;62605;49.432;8.680;2022-12-31T11:18:59;17.40;99.90
10417;DHT22;62605;49.432;8.680;2022-12-31T11:21:37;17.40;99.90
10417;DHT22;62605;49.432;8.680;2022-12-31T11:24:16;17.50;99.90
10417;DHT22;62605;49.432;8.680;2022-12-31T11:27:01;17.60;99.90
10417;DHT22;62605;49.432;8.680;2022-12-31T11:29:42;17.60;99.90
10417;DHT22;62605;49.432;8.680;2022-12-31T11:32:38;17.70;99.90
10417;DHT22;62605;49.432;8.680;2022-12-31T11:35:27;17.70;99.90
10417;DHT22;62605;49.432;8.680;2022-12-31T11:38:03;17.80;99.90
10417;DHT22;62605;49.432;8.680;2022-12-31T11:40:46;17.70;99.90
10417;DHT22;62605;49.432;8.680;2022-12-31T11:43:25;17.80;99.90
10417;DHT22;62605;49.432;8.680;2022-12-31T11:49:03;18.10;99.90
10417;DHT22;62605;49.432;8.680;2022-12-31T11:51:51;18.10;99.90
10417;DHT22;62605;49.432;8.680;2022-12-31T11:54:38;18.20;99.90
10417;DHT22;62605;49.432;8.680;2022-12-31T11:57:15;18.20;99.90
10417;DHT22;62605;49.432;8.680;2022-12-31T11:59:46;18.10;99.90
10417;DHT22;62605;49.432;8.680;2022-12-31T12:02:24;18.30;99.90
10417;DHT22;62605;49.432;8.680;2022-12-31T12:04:54;18.20;99.90
10417;DHT22;62605;49.432;8.680;2022-12-31T12:07:23;18.20;99.90
10417;DHT22;62605;49.432;8.680;2022-12-31T12:09:52;18.20;99.90
10417;DHT22;62605;49.432;8.680;2022-12-31T12:12:20;18.20;99.90
10417;DHT22;62605;49.432;8.680;2022-12-31T12:14:50;18.20;99.90
10417;DHT22;62605;49.432;8.680;2022-12-31T12:17:26;18.20;99.90
10417;DHT22;62605;49.432;8.680;2022-12-31T12:20:00;18.10;99.90
10417;DHT22;62605;49.432;8.680;2022-12-31T12:22:30;18.20;99.90
10417;DHT22;62605;49.432;8.680;2022-12-31T12:25:01;18.10;99.90
10417;DHT22;62605;49.432;8.680;2022-12-31T12:27:31;18.10;99.90
10417;DHT22;62605;49.432;8.680;2022-12-31T12:30:08;18.10;99.90
10417;DHT22;62605;49.432;8.680;2022-12-31T12:32:35;18.00;99.90
10417;DHT22;62605;49.432;8.680;2022-12-31T12:35:14;17.90;99.90
10417;DHT22;62605;49.432;8.680;2022-12-31T12:37:41;18.00;99.90
10417;DHT22;62605;49.432;8.680;2022-12-31T12:40:19;17.90;99.90
10417;DHT22;62605;49.432;8.680;2022-12-31T12:42:47;17.90;99.90
10417;DHT22;62605;49.432;8.680;2022-12-31T12:45:17;18.00;99.90
10417;DHT22;62605;49.432;8.680;2022-12-31T12:47:46;17.90;99.90
10417;DHT22;62605;49.432;8.680;2022-12-31T12:50:18;18.00;99.90
10417;DHT22;62605;49.432;8.680;2022-12-31T12:53:02;17.90;99.90
10417;DHT22;62605;49.432;8.680;2022-12-31T12:55:40;18.00;99.90
10417;DHT22;62605;49.432;8.680;2022-12-31T12:58:18;18.00;99.90
10417;DHT22;62605;49.432;8.680;2022-12-31T13:00:57;18.10;99.90
10417;DHT22;62605;49.432;8.680;2022-12-31T13:03:59;18.10;99.90
10417;DHT22;62605;49.432;8.680;2022-12-31T13:06:38;18.00;99.90
10417;DHT22;62605;49.432;8.680;2022-12-31T13:09:24;18.00;99.90
10417;DHT22;62605;49.432;8.680;2022-12-31T13:12:03;17.90;99.90
10417;DHT22;62605;49.432;8.680;2022-12-31T13:14:37;17.90;99.90
10417;DHT22;62605;49.432;8.680;2022-12-31T13:17:27;17.90;99.90
10417;DHT22;62605;49.432;8.680;2022-12-31T13:20:00;17.90;99.90
10417;DHT22;62605;49.432;8.680;2022-12-31T13:22:33;17.80;99.90
10417;DHT22;62605;49.432;8.680;2022-12-31T13:25:14;17.70;99.90
10417;DHT22;62605;49.432;8.680;2022-12-31T13:27:49;17.70;99.90
10417;DHT22;62605;49.432;8.680;2022-12-31T13:30:20;17.60;99.90
10417;DHT22;62605;49.432;8.680;2022-12-31T13:32:52;17.60;99.90
10417;DHT22;62605;49.432;8.680;2022-12-31T13:35:27;17.60;99.90
10417;DHT22;62605;49.432;8.680;2022-12-31T13:38:00;17.60;99.90
10417;DHT22;62605;49.432;8.680;2022-12-31T13:40:31;17.60;99.90
10417;DHT22;62605;49.432;8.680;2022-12-31T13:43:06;17.50;99.90
10417;DHT22;62605;49.432;8.680;2022-12-31T13:45:42;17.60;99.90
10417;DHT22;62605;49.432;8.680;2022-12-31T13:48:13;17.60;99.90
10417;DHT22;62605;49.432;8.680;2022-12-31T13:50:49;17.50;99.90
10417;DHT22;62605;49.432;8.680;2022-12-31T13:53:25;17.40;99.90
10417;DHT22;62605;49.432;8.680;2022-12-31T13:55:55;17.40;99.90
10417;DHT22;62605;49.432;8.680;2022-12-31T13:58:30;17.50;99.90
10417;DHT22;62605;49.432;8.680;2022-12-31T14:01:02;17.40;99.90
10417;DHT22;62605;49.432;8.680;2022-12-31T14:03:39;17.30;99.90
10417;DHT22;62605;49.432;8.680;2022-12-31T14:06:15;17.30;99.90
10417;DHT22;62605;49.432;8.680;2022-12-31T14:08:46;17.40;99.90
10417;DHT22;62605;49.432;8.680;2022-12-31T14:11:19;17.20;99.90
10417;DHT22;62605;49.432;8.680;2022-12-31T14:14:00;17.10;99.90
10417;DHT22;62605;49.432;8.680;2022-12-31T14:16:36;17.10;99.90
10417;DHT22;62605;49.432;8.680;2022-12-31T14:19:15;17.10;99.90
10417;DHT22;62605;49.432;8.680;2022-12-31T14:21:47;17.20;99.90
10417;DHT22;62605;49.432;8.680;2022-12-31T14:24:28;17.10;99.90
10417;DHT22;62605;49.432;8.680;2022-12-31T14:27:01;17.10;99.90
10417;DHT22;62605;49.432;8.680;2022-12-31T14:29:32;17.00;99.90
10417;DHT22;62605;49.432;8.680;2022-12-31T14:35:37;16.90;99.90
10417;DHT22;62605;49.432;8.680;2022-12-31T14:38:19;16.90;99.90
10417;DHT22;62605;49.432;8.680;2022-12-31T14:40:59;16.90;99.90
10417;DHT22;62605;49.432;8.680;2022-12-31T14:43:38;17.00;99.90
10417;DHT22;62605;49.432;8.680;2022-12-31T14:46:13;16.90;99.90
10417;DHT22;62605;49.432;8.680;2022-12-31T14:48:54;16.90;99.90
10417;DHT22;62605;49.432;8.680;2022-12-31T14:51:26;16.90;99.90
10417;DHT22;62605;49.432;8.680;2022-12-31T14:53:55;17.00;99.90
10417;DHT22;62605;49.432;8.680;2022-12-31T14:56:29;16.80;99.90
10417;DHT22;62605;49.432;8.680;2022-12-31T14:58:59;16.70;99.90
10417;DHT22;62605;49.432;8.680;2022-12-31T15:01:28;16.70;99.90
10417;DHT22;62605;49.432;8.680;2022-12-31T15:03:56;16.70;99.90
10417;DHT22;62605;49.432;8.680;2022-12-31T15:06:39;16.60;99.90
10417;DHT22;62605;49.432;8.680;2022-12-31T15:09:16;16.60;99.90
10417;DHT22;62605;49.432;8.680;2022-12-31T15:12:09;16.50;99.90
10417;DHT22;62605;49.432;8.680;2022-12-31T15:14:51;16.40;99.90
10417;DHT22;62605;49.432;8.680;2022-12-31T15:17:29;16.40;99.90
10417;DHT22;62605;49.432;8.680;2022-12-31T15:20:25;16.40;99.90
10417;DHT22;62605;49.432;8.680;2022-12-31T15:22:57;16.30;99.90
10417;DHT22;62605;49.432;8.680;2022-12-31T15:25:28;16.40;99.90
10417;DHT22;62605;49.432;8.680;2022-12-31T15:27:58;16.20;99.90
10417;DHT22;62605;49.432;8.680;2022-12-31T15:30:33;16.20;99.90
10417;DHT22;62605;49.432;8.680;2022-12-31T15:33:03;16.20;99.90
10417;DHT22;62605;49.432;8.680;2022-12-31T15:35:43;16.20;99.90
10417;DHT22;62605;49.432;8.680;2022-12-31T15:38:32;16.20;99.90
10417;DHT22;62605;49.432;8.680;2022-12-31T15:41:12;16.20;99.90
10417;DHT22;62605;49.432;8.680;2022-12-31T15:43:44;16.00;99.90
10417;DHT22;62605;49.432;8.680;2022-12-31T15:46:16;16.10;99.90
10417;DHT22;62605;49.432;8.680;2022-12-31T15:48:46;16.00;99.90
10417;DHT22;62605;49.432;8.680;2022-12-31T15:51:20;15.90;99.90
10417;DHT22;62605;49.432;8.680;2022-12-31T15:53:52;15.80;99.90
10417;DHT22;62605;49.432;8.680;2022-12-31T15:56:25;15.80;99.90
10417;DHT22;62605;49.432;8.680;2022-12-31T15:58:58;15.70;99.90
10417;DHT22;62605;49.432;8.680;2022-12-31T16:01:29;15.70;99.90
10417;DHT22;62605;49.432;8.680;2022-12-31T16:03:59;15.90;99.90
10417;DHT22;62605;49.432;8.680;2022-12-31T16:06:31;16.00;99.90
10417;DHT22;62605;49.432;8.680;2022-12-31T16:08:59;15.90;99.90
10417;DHT22;62605;49.432;8.680;2022-12-31T16:11:26;15.90;99.90
10417;DHT22;62605;49.432;8.680;2022-12-31T16:13:58;15.80;99.90
10417;DHT22;62605;49.432;8.680;2022-12-31T16:16:28;15.80;99.90
10417;DHT22;62605;49.432;8.680;2022-12-31T16:18:56;15.80;99.90
10417;DHT22;62605;49.432;8.680;2022-12-31T16:21:27;15.80;99.90
10417;DHT22;62605;49.432;8.680;2022-12-31T16:23:59;15.80;99.90
10417;DHT22;62605;49.432;8.680;2022-12-31T16:26:30;15.80;99.90
10417;DHT22;62605;49.432;8.680;2022-12-31T16:28:59;15.90;99.90
10417;DHT22;62605;49.432;8.680;2022-12-31T16:31:29;15.70;99.90
10417;DHT22;62605;49.432;8.680;2022-12-31T16:34:04;15.70;99.90
10417;DHT22;62605;49.432;8.680;2022-12-31T16:36:33;15.70;99.90
10417;DHT22;62605;49.432;8.680;2022-12-31T16:39:22;15.60;99.90
10417;DHT22;62605;49.432;8.680;2022-12-31T16:41:51;15.80;99.90
10417;DHT22;62605;49.432;8.680;2022-12-31T16:44:28;15.70;99.90